Time;durP1;ratioP1;P1;durP2;ratioP2;P2;SDS_P1;SDS_P2;PMS_P1;PMS_P2;Temp;Humidity;BMP_temperature;BMP_pressure;BME280_temperature;BME280_humidity;BME280_pressure;Samples;Min_cycle;Max_cycle;Signal;HPM_P1;HPM_P2
2024/01/22 00:00:35;;;;;;;13.13;4.77;;;9.90;99.90;;;;;;7280752;19;20966;-75
2024/01/22 00:03:01;;;;;;;11.17;4.10;;;9.90;99.90;;;;;;7281795;19;20195;-74
2024/01/22 00:05:27;;;;;;;8.83;3.97;;;10.00;99.90;;;;;;7281293;19;20191;-74
2024/01/22 00:07:53;;;;;;;12.27;4.00;;;10.00;99.90;;;;;;7293940;19;21163;-74
2024/01/22 00:10:18;;;;;;;9.83;4.00;;;10.10;99.90;;;;;;7298086;19;20195;-74
2024/01/22 00:12:44;;;;;;;10.50;3.70;;;10.10;99.90;;;;;;7278836;19;20191;-75
2024/01/22 00:15:10;;;;;;;10.57;3.80;;;10.10;99.90;;;;;;7280375;19;20201;-74
2024/01/22 00:17:36;;;;;;;12.73;3.80;;;10.10;99.90;;;;;;7278498;19;20188;-74
2024/01/22 00:20:02;;;;;;;7.67;3.93;;;10.10;99.90;;;;;;7280896;19;20218;-74
2024/01/22 00:22:28;;;;;;;9.20;3.77;;;10.20;99.90;;;;;;7281474;19;20198;-74
2024/01/22 00:24:54;;;;;;;10.37;3.50;;;10.20;99.90;;;;;;7285165;19;20198;-74
2024/01/22 00:27:20;;;;;;;11.00;3.50;;;10.20;99.90;;;;;;7302008;19;20662;-75
2024/01/22 00:29:45;;;;;;;11.50;3.87;;;10.30;99.90;;;;;;7280560;19;20194;-74
2024/01/22 00:32:12;;;;;;;9.07;3.30;;;10.20;99.90;;;;;;7281153;19;20256;-74
2024/01/22 00:34:37;;;;;;;9.77;3.77;;;10.30;99.90;;;;;;7279220;19;20222;-76
2024/01/22 00:37:03;;;;;;;10.07;3.43;;;10.40;99.90;;;;;;7278795;19;20187;-74
2024/01/22 00:39:29;;;;;;;6.30;3.00;;;10.40;99.90;;;;;;7279881;19;20293;-74
2024/01/22 00:41:56;;;;;;;6.90;3.20;;;10.40;99.90;;;;;;7278817;19;20266;-74
2024/01/22 00:44:22;;;;;;;10.47;3.30;;;10.40;99.90;;;;;;7303003;19;20554;-74
2024/01/22 00:46:49;;;;;;;8.97;3.07;;;10.40;99.90;;;;;;7280010;19;20191;-74
2024/01/22 00:49:15;;;;;;;8.93;2.90;;;10.50;99.90;;;;;;7279354;19;20637;-73
2024/01/22 00:51:40;;;;;;;7.63;2.87;;;10.50;99.90;;;;;;7279627;19;20187;-74
2024/01/22 00:54:06;;;;;;;7.33;2.87;;;10.50;99.90;;;;;;7277637;19;20199;-74
2024/01/22 00:56:33;;;;;;;5.23;2.93;;;10.60;99.90;;;;;;7279827;19;20689;-74
2024/01/22 00:58:59;;;;;;;7.27;2.93;;;10.60;99.90;;;;;;7279380;19;20671;-74
2024/01/22 01:01:25;;;;;;;8.57;3.30;;;10.70;99.90;;;;;;7277549;19;20216;-74
2024/01/22 01:03:50;;;;;;;8.57;2.87;;;10.70;99.90;;;;;;7302510;19;20560;-75
2024/01/22 01:06:16;;;;;;;7.50;2.47;;;10.70;99.90;;;;;;7279246;19;20188;-75
2024/01/22 01:08:42;;;;;;;7.53;2.70;;;10.70;99.90;;;;;;7279637;19;20184;-74
2024/01/22 01:11:08;;;;;;;7.30;2.70;;;10.70;99.90;;;;;;7278420;19;20669;-74
2024/01/22 01:13:33;;;;;;;6.60;2.47;;;10.70;99.90;;;;;;7278096;19;20196;-74
2024/01/22 01:15:59;;;;;;;8.90;3.00;;;10.80;99.90;;;;;;7278297;19;20201;-74
2024/01/22 01:18:26;;;;;;;6.33;2.53;;;10.80;99.90;;;;;;7278704;19;20271;-74
2024/01/22 01:20:51;;;;;;;7.27;2.90;;;10.80;99.90;;;;;;7300880;19;20193;-74
2024/01/22 01:23:17;;;;;;;5.33;2.47;;;10.90;99.90;;;;;;7279496;19;20655;-74
2024/01/22 01:25:43;;;;;;;6.97;2.70;;;10.90;99.90;;;;;;7278265;19;20213;-75
2024/01/22 01:28:08;;;;;;;4.33;2.00;;;10.90;99.90;;;;;;7278074;19;20284;-74
2024/01/22 01:30:34;;;;;;;6.27;2.30;;;10.90;99.90;;;;;;7279013;19;20195;-75
2024/01/22 01:33:00;;;;;;;5.70;2.23;;;10.90;99.90;;;;;;7277838;19;20786;-74
2024/01/22 01:35:25;;;;;;;9.03;2.50;;;10.90;99.90;;;;;;7277761;19;20192;-74
2024/01/22 01:37:52;;;;;;;6.17;2.27;;;11.00;99.90;;;;;;7298569;19;20263;-73
2024/01/22 01:40:17;;;;;;;5.57;2.40;;;11.00;99.90;;;;;;7280401;19;20571;-76
2024/01/22 01:42:44;;;;;;;6.53;2.60;;;11.00;99.90;;;;;;7279556;19;20212;-73
2024/01/22 01:45:15;;;;;;;6.13;2.40;;;11.00;99.90;;;;;;7278495;19;20588;-74
2024/01/22 01:47:43;;;;;;;6.53;2.40;;;11.00;99.90;;;;;;7278084;19;20539;-74
2024/01/22 01:50:10;;;;;;;5.07;2.07;;;11.10;99.90;;;;;;7279458;19;20653;-74
2024/01/22 01:52:36;;;;;;;7.97;2.53;;;11.10;99.90;;;;;;7278345;19;20252;-73
2024/01/22 01:55:03;;;;;;;4.67;2.10;;;11.10;99.90;;;;;;7277346;19;20185;-74
2024/01/22 01:57:29;;;;;;;6.07;2.40;;;11.20;99.90;;;;;;7279308;19;20189;-73
2024/01/22 01:59:57;;;;;;;6.40;2.50;;;11.30;99.90;;;;;;7277826;19;20270;-76
2024/01/22 02:02:23;;;;;;;7.07;1.90;;;11.30;99.90;;;;;;7295149;19;20212;-76
2024/01/22 02:04:48;;;;;;;6.00;2.20;;;11.30;99.90;;;;;;7287363;19;20699;-73
2024/01/22 02:07:15;;;;;;;5.47;1.97;;;11.40;99.90;;;;;;7277265;19;21395;-74
2024/01/22 02:09:50;;;;;;;4.07;2.20;;;11.40;99.90;;;;;;7277024;19;20187;-74
2024/01/22 02:12:17;;;;;;;4.23;1.60;;;11.40;99.90;;;;;;7278691;19;20183;-74
2024/01/22 02:14:44;;;;;;;4.47;1.63;;;11.40;99.90;;;;;;7276982;19;20202;-74
2024/01/22 02:17:10;;;;;;;4.00;1.70;;;11.50;99.90;;;;;;7277144;19;20209;-74
2024/01/22 02:19:36;;;;;;;3.60;1.90;;;11.50;99.90;;;;;;7277068;19;20264;-74
2024/01/22 02:22:01;;;;;;;4.40;1.77;;;11.50;99.90;;;;;;7276380;19;20192;-74
2024/01/22 02:24:27;;;;;;;6.30;1.80;;;11.60;99.90;;;;;;7276771;19;20272;-73
2024/01/22 02:26:53;;;;;;;4.40;1.70;;;11.60;99.90;;;;;;7296556;19;20294;-74
2024/01/22 02:29:18;;;;;;;5.53;1.60;;;11.60;99.90;;;;;;7285424;19;20192;-74
2024/01/22 02:31:45;;;;;;;3.27;1.90;;;11.60;99.90;;;;;;7278047;19;21143;-74
2024/01/22 02:34:11;;;;;;;4.73;1.43;;;11.60;99.90;;;;;;7275263;19;20271;-74
2024/01/22 02:36:37;;;;;;;3.63;1.57;;;11.60;99.90;;;;;;7276942;19;20257;-75
2024/01/22 02:39:03;;;;;;;5.33;1.60;;;11.60;99.90;;;;;;7277308;19;20279;-75
2024/01/22 02:41:29;;;;;;;3.80;1.53;;;11.60;99.90;;;;;;7276159;19;20191;-74
2024/01/22 02:43:54;;;;;;;4.37;1.80;;;11.60;99.90;;;;;;7280067;19;20900;-74
2024/01/22 02:46:20;;;;;;;4.77;1.80;;;11.40;99.90;;;;;;7297726;19;20193;-74
2024/01/22 02:48:46;;;;;;;4.07;1.70;;;11.30;99.90;;;;;;7276775;19;20188;-75
2024/01/22 02:51:11;;;;;;;5.47;1.80;;;11.30;99.90;;;;;;7283525;19;20192;-75
2024/01/22 02:53:38;;;;;;;6.80;1.90;;;11.30;99.90;;;;;;7281467;19;20192;-74
2024/01/22 02:56:04;;;;;;;5.60;1.90;;;11.20;99.90;;;;;;7283281;19;20655;-74
2024/01/22 02:58:31;;;;;;;8.00;1.73;;;11.10;99.90;;;;;;7283830;19;20739;-74
2024/01/22 03:00:57;;;;;;;4.47;2.00;;;11.10;99.90;;;;;;7281467;19;20672;-74
2024/01/22 03:03:23;;;;;;;7.87;1.80;;;11.00;99.90;;;;;;7301162;19;20255;-74
2024/01/22 03:05:49;;;;;;;4.57;1.83;;;11.00;99.90;;;;;;7297000;19;20187;-75
2024/01/22 03:08:14;;;;;;;5.07;2.03;;;11.00;99.90;;;;;;7282645;19;20195;-75
2024/01/22 03:10:40;;;;;;;6.37;2.27;;;10.90;99.90;;;;;;7280011;19;20196;-74
2024/01/22 03:13:06;;;;;;;4.33;1.90;;;11.00;99.90;;;;;;7282522;19;20267;-74
2024/01/22 03:15:31;;;;;;;4.33;1.90;;;11.00;99.90;;;;;;7283466;19;20196;-75
2024/01/22 03:17:57;;;;;;;5.40;1.90;;;11.00;99.90;;;;;;7282911;19;20187;-75
2024/01/22 03:20:23;;;;;;;4.13;1.60;;;11.00;99.90;;;;;;7298886;19;21012;-75
2024/01/22 03:22:49;;;;;;;4.37;1.70;;;11.00;99.90;;;;;;7295840;19;20199;-75
2024/01/22 03:25:15;;;;;;;4.77;1.70;;;11.00;99.90;;;;;;7283355;19;20185;-74
2024/01/22 03:27:41;;;;;;;5.20;1.53;;;11.00;99.90;;;;;;7281416;19;20213;-75
2024/01/22 03:30:07;;;;;;;5.67;1.80;;;11.00;99.90;;;;;;7283951;19;20193;-75
2024/01/22 03:32:33;;;;;;;4.27;1.77;;;11.00;99.90;;;;;;7283489;19;20212;-75
2024/01/22 03:34:59;;;;;;;4.47;1.50;;;11.10;99.90;;;;;;7281560;19;20203;-74
2024/01/22 03:37:24;;;;;;;5.60;1.47;;;11.10;99.90;;;;;;7284934;19;20189;-74
2024/01/22 03:39:50;;;;;;;3.27;1.47;;;11.10;99.90;;;;;;7303427;19;20270;-75
2024/01/22 03:42:17;;;;;;;3.23;1.47;;;11.20;99.90;;;;;;7281434;19;20789;-75
2024/01/22 03:44:43;;;;;;;3.83;1.40;;;11.20;99.90;;;;;;7282645;19;20201;-75
2024/01/22 03:47:08;;;;;;;5.53;1.27;;;11.40;99.90;;;;;;7283731;19;20181;-74
2024/01/22 03:49:34;;;;;;;4.07;1.10;;;11.50;99.90;;;;;;7282937;19;20218;-75
2024/01/22 03:52:00;;;;;;;3.43;1.10;;;11.50;99.90;;;;;;7281938;19;20690;-75
2024/01/22 03:54:25;;;;;;;4.50;1.57;;;11.60;99.90;;;;;;7280747;19;20642;-75
2024/01/22 03:56:51;;;;;;;4.57;1.57;;;11.70;99.90;;;;;;7302741;19;20227;-74
2024/01/22 03:59:18;;;;;;;4.23;1.13;;;11.80;99.90;;;;;;7281530;19;20714;-75
2024/01/22 04:01:43;;;;;;;3.90;1.10;;;11.80;99.90;;;;;;7280996;19;20213;-76
2024/01/22 04:04:10;;;;;;;3.53;1.00;;;11.80;99.90;;;;;;7282135;19;20212;-76
2024/01/22 04:06:36;;;;;;;4.33;1.60;;;12.00;99.90;;;;;;7281082;19;20188;-75
2024/01/22 04:09:02;;;;;;;4.03;1.10;;;12.10;99.90;;;;;;7280663;19;20202;-75
2024/01/22 04:11:27;;;;;;;5.00;1.00;;;12.10;99.90;;;;;;7281264;19;20195;-75
2024/01/22 04:13:53;;;;;;;6.87;1.37;;;12.20;99.90;;;;;;7301645;19;20722;-75
2024/01/22 04:16:19;;;;;;;3.57;1.23;;;12.20;99.90;;;;;;7291174;19;20194;-74
2024/01/22 04:18:44;;;;;;;5.60;1.47;;;12.20;99.90;;;;;;7280091;19;20250;-74
2024/01/22 04:21:11;;;;;;;4.60;1.23;;;12.20;99.90;;;;;;7281420;19;20214;-74
2024/01/22 04:23:37;;;;;;;2.73;1.00;;;12.20;99.90;;;;;;7281151;19;20660;-74
2024/01/22 04:26:04;;;;;;;3.93;1.27;;;12.20;99.90;;;;;;7279684;19;20256;-74
2024/01/22 04:28:30;;;;;;;5.10;1.23;;;12.20;99.90;;;;;;7280196;19;20298;-74
2024/01/22 04:30:55;;;;;;;4.60;1.20;;;12.20;99.90;;;;;;7280983;19;20252;-74
2024/01/22 04:33:21;;;;;;;3.80;1.10;;;12.30;99.90;;;;;;7301312;19;20200;-74
2024/01/22 04:35:49;;;;;;;4.90;1.10;;;12.30;99.90;;;;;;7281384;19;20194;-74
2024/01/22 04:38:15;;;;;;;3.60;1.00;;;12.40;99.90;;;;;;7281116;19;21036;-74
2024/01/22 04:40:41;;;;;;;5.80;1.23;;;12.40;99.90;;;;;;7281054;19;20617;-74
2024/01/22 04:43:07;;;;;;;5.23;1.37;;;12.30;99.90;;;;;;7281165;19;20193;-73
2024/01/22 04:45:33;;;;;;;1.60;0.87;;;12.20;99.90;;;;;;7280536;19;20189;-74
2024/01/22 04:47:59;;;;;;;3.80;1.20;;;12.20;99.90;;;;;;7280794;19;20214;-73
2024/01/22 04:50:24;;;;;;;5.27;1.30;;;12.10;99.90;;;;;;7286616;19;20260;-74
2024/01/22 04:52:50;;;;;;;6.93;1.50;;;12.10;99.90;;;;;;7301571;19;20624;-73
2024/01/22 04:55:16;;;;;;;4.90;1.20;;;12.20;99.90;;;;;;7280347;19;21052;-73
2024/01/22 04:57:41;;;;;;;3.40;1.03;;;12.30;99.90;;;;;;7279742;19;20248;-73
2024/01/22 05:00:08;;;;;;;3.47;1.20;;;12.30;99.90;;;;;;7279460;19;20193;-73
2024/01/22 05:02:33;;;;;;;5.90;1.33;;;12.40;99.90;;;;;;7281348;19;20210;-74
2024/01/22 05:05:02;;;;;;;4.50;1.37;;;12.40;99.90;;;;;;7279538;19;20189;-73
2024/01/22 05:07:27;;;;;;;3.30;1.10;;;12.20;99.90;;;;;;7279643;19;20309;-73
2024/01/22 05:09:58;;;;;;;5.33;1.50;;;12.20;99.90;;;;;;7301209;19;20281;-73
2024/01/22 05:12:24;;;;;;;4.23;1.47;;;12.20;99.90;;;;;;7293293;19;20657;-73
2024/01/22 05:14:51;;;;;;;3.80;1.20;;;12.00;99.90;;;;;;7300930;19;20189;-73
2024/01/22 05:17:16;;;;;;;4.40;1.30;;;11.90;99.90;;;;;;7277895;19;20189;-73
2024/01/22 05:19:42;;;;;;;2.73;1.20;;;11.90;99.90;;;;;;7280784;19;20290;-74
2024/01/22 05:22:08;;;;;;;4.13;1.30;;;11.80;99.90;;;;;;7280382;19;20192;-74
2024/01/22 05:24:34;;;;;;;5.60;1.83;;;11.80;99.90;;;;;;7279774;19;20193;-74
2024/01/22 05:27:01;;;;;;;3.93;1.30;;;11.90;99.90;;;;;;7277994;19;20252;-74
2024/01/22 05:29:27;;;;;;;5.27;1.50;;;11.90;99.90;;;;;;7280378;19;20189;-74
2024/01/22 05:31:53;;;;;;;5.77;1.60;;;12.00;99.90;;;;;;7303921;19;20189;-73
2024/01/22 05:34:18;;;;;;;5.57;1.27;;;12.00;99.90;;;;;;7280940;19;20552;-74
2024/01/22 05:36:44;;;;;;;7.27;1.80;;;12.00;99.90;;;;;;7279600;19;20195;-74
2024/01/22 05:39:10;;;;;;;4.97;1.40;;;12.10;99.90;;;;;;7281853;19;20216;-75
2024/01/22 05:41:36;;;;;;;5.50;1.50;;;12.10;99.90;;;;;;7278257;19;20189;-74
2024/01/22 05:44:01;;;;;;;2.90;1.20;;;12.10;99.90;;;;;;7281661;19;20305;-74
2024/01/22 05:46:27;;;;;;;2.83;1.10;;;12.10;99.90;;;;;;7280262;19;20644;-73
2024/01/22 05:48:53;;;;;;;3.30;1.00;;;12.20;99.90;;;;;;7301761;19;20221;-74
2024/01/22 05:51:20;;;;;;;4.13;1.23;;;12.30;99.90;;;;;;7280818;19;20196;-73
2024/01/22 05:53:47;;;;;;;3.93;1.03;;;12.40;99.90;;;;;;7278781;19;20188;-73
2024/01/22 05:56:25;;;;;;;3.23;1.13;;;12.40;99.90;;;;;;7278842;19;20190;-73
2024/01/22 05:58:51;;;;;;;3.53;0.90;;;12.50;99.90;;;;;;7278659;19;20315;-73
2024/01/22 06:01:21;;;;;;;4.13;1.00;;;12.60;99.90;;;;;;7278412;19;20192;-73
2024/01/22 06:03:47;;;;;;;5.03;0.97;;;12.60;99.90;;;;;;7280419;19;20185;-73
2024/01/22 06:06:14;;;;;;;3.70;1.00;;;12.70;99.90;;;;;;7278552;19;20620;-75
2024/01/22 06:08:44;;;;;;;4.37;1.13;;;12.70;99.90;;;;;;7277375;19;20195;-73
2024/01/22 06:11:11;;;;;;;5.40;1.27;;;12.70;99.90;;;;;;7279405;19;20189;-73
2024/01/22 06:13:39;;;;;;;4.07;1.10;;;12.80;99.90;;;;;;7276685;19;20206;-73
2024/01/22 06:16:07;;;;;;;7.93;1.30;;;12.80;99.90;;;;;;7277876;19;20198;-75
2024/01/22 06:18:33;;;;;;;4.73;1.20;;;12.80;99.90;;;;;;7277605;19;20651;-75
2024/01/22 06:20:59;;;;;;;4.63;1.10;;;12.80;99.90;;;;;;7278977;19;20193;-73
2024/01/22 06:23:25;;;;;;;3.57;1.00;;;12.80;99.90;;;;;;7282537;19;20203;-74
2024/01/22 06:25:51;;;;;;;5.63;1.40;;;12.70;99.90;;;;;;7299511;19;20202;-73
2024/01/22 06:28:16;;;;;;;3.20;1.13;;;12.60;99.90;;;;;;7276197;19;20196;-74
2024/01/22 06:30:43;;;;;;;7.10;1.40;;;12.60;99.90;;;;;;7274156;19;20215;-76
2024/01/22 06:33:09;;;;;;;6.73;1.20;;;12.60;99.90;;;;;;7278102;19;20185;-75
2024/01/22 06:35:36;;;;;;;4.40;1.10;;;12.60;99.90;;;;;;7277790;19;20195;-74
2024/01/22 06:38:02;;;;;;;5.67;1.10;;;12.60;99.90;;;;;;7277961;19;20194;-73
2024/01/22 06:40:29;;;;;;;5.60;1.40;;;12.60;99.90;;;;;;7277091;19;20196;-74
2024/01/22 06:42:55;;;;;;;4.87;1.00;;;12.50;99.90;;;;;;7286039;19;20197;-75
2024/01/22 06:45:20;;;;;;;3.10;0.93;;;12.60;99.90;;;;;;7299485;19;20698;-76
2024/01/22 06:47:46;;;;;;;3.10;1.00;;;12.60;99.90;;;;;;7277628;19;20217;-77
2024/01/22 06:50:12;;;;;;;4.37;1.10;;;12.70;99.90;;;;;;7274399;19;20758;-76
2024/01/22 06:52:37;;;;;;;4.03;1.40;;;12.60;99.90;;;;;;7277399;19;20266;-77
2024/01/22 06:55:05;;;;;;;5.93;0.93;;;12.40;99.90;;;;;;7276879;19;20205;-77
2024/01/22 06:57:31;;;;;;;5.80;1.10;;;12.30;99.90;;;;;;7276777;19;20673;-77
2024/01/22 06:59:56;;;;;;;5.30;1.60;;;12.20;99.90;;;;;;7276355;19;20185;-76
2024/01/22 07:02:26;;;;;;;5.43;1.13;;;12.10;99.90;;;;;;7298258;19;20648;-77
2024/01/22 07:04:53;;;;;;;7.67;1.77;;;12.10;99.90;;;;;;7276816;19;20296;-76
2024/01/22 07:07:18;;;;;;;7.43;1.50;;;12.10;99.90;;;;;;7278007;19;20184;-76
2024/01/22 07:09:44;;;;;;;4.80;1.10;;;12.00;99.90;;;;;;7279312;19;20185;-77
2024/01/22 07:12:10;;;;;;;5.07;1.37;;;12.00;99.90;;;;;;7277276;19;20189;-77
2024/01/22 07:14:35;;;;;;;5.27;1.30;;;12.00;99.90;;;;;;7278053;19;20675;-76
2024/01/22 07:17:03;;;;;;;7.63;1.50;;;12.10;99.90;;;;;;7279245;19;20193;-77
2024/01/22 07:19:29;;;;;;;7.03;1.50;;;12.10;99.90;;;;;;7276764;19;20203;-77
2024/01/22 07:21:54;;;;;;;4.27;1.30;;;12.20;99.90;;;;;;7290834;19;20704;-77
2024/01/22 07:24:20;;;;;;;4.97;1.33;;;12.20;99.90;;;;;;7294136;19;20185;-77
2024/01/22 07:26:46;;;;;;;6.43;1.50;;;12.20;99.90;;;;;;7277672;19;20636;-77
2024/01/22 07:29:12;;;;;;;6.33;1.23;;;12.10;99.90;;;;;;7277771;19;20203;-77
2024/01/22 07:31:38;;;;;;;5.77;1.10;;;12.00;99.90;;;;;;7277658;19;20201;-77
2024/01/22 07:34:05;;;;;;;4.40;1.20;;;12.00;99.90;;;;;;7276226;19;20189;-77
2024/01/22 07:36:31;;;;;;;7.43;1.63;;;12.00;99.90;;;;;;7279413;19;20220;-77
2024/01/22 07:38:58;;;;;;;5.00;1.30;;;12.00;99.90;;;;;;7282059;19;20189;-77
2024/01/22 07:41:23;;;;;;;9.03;1.53;;;12.00;99.90;;;;;;7304583;19;20209;-77
2024/01/22 07:43:49;;;;;;;6.87;1.80;;;11.90;99.90;;;;;;7284799;19;20199;-76
2024/01/22 07:46:15;;;;;;;8.10;1.60;;;12.00;99.90;;;;;;7282727;19;20190;-76
2024/01/22 07:48:41;;;;;;;8.17;1.53;;;12.00;99.90;;;;;;7282973;19;20669;-76
2024/01/22 07:51:07;;;;;;;10.17;1.93;;;12.00;99.90;;;;;;7283496;19;20213;-77
2024/01/22 07:53:33;;;;;;;11.03;1.60;;;12.00;99.90;;;;;;7280508;19;20193;-77
2024/01/22 07:55:59;;;;;;;12.03;1.97;;;12.00;99.90;;;;;;7284329;19;20202;-77
2024/01/22 07:58:25;;;;;;;8.03;1.40;;;11.90;99.90;;;;;;7293775;19;20224;-76
2024/01/22 08:00:50;;;;;;;10.43;1.80;;;11.90;99.90;;;;;;7299894;19;20203;-76
2024/01/22 08:03:16;;;;;;;11.23;1.70;;;11.90;99.90;;;;;;7282767;19;20198;-77
2024/01/22 08:05:42;;;;;;;12.33;1.80;;;11.90;99.90;;;;;;7283898;19;20261;-76
2024/01/22 08:08:11;;;;;;;9.50;1.87;;;11.90;99.90;;;;;;7283203;19;20185;-77
2024/01/22 08:10:37;;;;;;;9.60;1.80;;;12.00;99.90;;;;;;7283218;19;20188;-77
2024/01/22 08:13:03;;;;;;;10.97;1.70;;;12.00;99.90;;;;;;7281893;19;20189;-77
2024/01/22 08:15:29;;;;;;;10.60;2.10;;;12.10;99.90;;;;;;7283178;19;20204;-76
2024/01/22 08:17:55;;;;;;;14.00;2.17;;;12.10;99.90;;;;;;7294904;19;20669;-77
2024/01/22 08:20:21;;;;;;;7.23;1.47;;;12.20;99.90;;;;;;7303230;19;20193;-77
2024/01/22 08:22:47;;;;;;;8.57;1.73;;;12.10;99.90;;;;;;7282285;19;20219;-77
2024/01/22 08:25:18;;;;;;;9.63;1.43;;;12.10;99.90;;;;;;7281692;19;20194;-77
2024/01/22 08:27:47;;;;;;;7.90;1.57;;;12.10;99.90;;;;;;7280566;19;20204;-77
2024/01/22 08:30:13;;;;;;;14.23;2.07;;;12.10;99.90;;;;;;7284260;19;20201;-77
2024/01/22 08:32:39;;;;;;;12.13;1.50;;;12.10;99.90;;;;;;7281690;19;20539;-78
2024/01/22 08:35:05;;;;;;;10.83;2.33;;;12.20;99.90;;;;;;7280901;19;20204;-77
2024/01/22 08:37:31;;;;;;;12.17;1.70;;;12.20;99.90;;;;;;7281355;19;20193;-77
2024/01/22 08:39:57;;;;;;;13.47;2.27;;;12.30;99.90;;;;;;7281316;19;20196;-77
2024/01/22 08:42:24;;;;;;;12.80;2.10;;;12.40;99.90;;;;;;7304287;19;20188;-76
2024/01/22 08:44:50;;;;;;;9.80;1.70;;;12.40;99.90;;;;;;7284272;19;20232;-76
2024/01/22 08:47:17;;;;;;;11.93;2.30;;;12.40;99.90;;;;;;7282036;19;20193;-77
2024/01/22 08:49:42;;;;;;;9.13;2.13;;;12.40;99.90;;;;;;7284422;19;20209;-76
2024/01/22 08:52:08;;;;;;;12.87;2.13;;;12.50;99.90;;;;;;7281721;19;20193;-76
2024/01/22 08:54:34;;;;;;;10.70;1.57;;;12.50;99.90;;;;;;7280954;19;20222;-77
2024/01/22 08:56:59;;;;;;;14.53;1.83;;;12.60;99.90;;;;;;7281397;19;20202;-76
2024/01/22 08:59:25;;;;;;;14.90;2.00;;;12.60;99.90;;;;;;7290406;19;20980;-76
2024/01/22 09:01:51;;;;;;;10.70;2.10;;;12.60;99.90;;;;;;7302885;19;20193;-77
2024/01/22 09:04:16;;;;;;;15.40;1.77;;;12.60;99.90;;;;;;7282646;19;20635;-76
2024/01/22 09:06:42;;;;;;;12.80;2.40;;;12.60;99.90;;;;;;7281116;19;20217;-77
2024/01/22 09:09:09;;;;;;;16.17;2.60;;;12.70;99.90;;;;;;7281864;19;20182;-76
2024/01/22 09:11:35;;;;;;;14.53;2.50;;;12.80;99.90;;;;;;7281242;19;20468;-77
2024/01/22 09:14:01;;;;;;;11.03;2.20;;;12.80;99.90;;;;;;7280654;19;20192;-76
2024/01/22 09:16:27;;;;;;;12.10;2.00;;;12.80;99.90;;;;;;7279569;19;20184;-76
2024/01/22 09:18:53;;;;;;;14.23;1.70;;;12.90;99.90;;;;;;7303081;19;20269;-76
2024/01/22 09:21:19;;;;;;;10.73;1.90;;;13.00;99.90;;;;;;7280097;19;20254;-76
2024/01/22 09:23:44;;;;;;;11.70;1.70;;;13.00;99.90;;;;;;7279511;19;20179;-77
2024/01/22 09:26:10;;;;;;;14.83;1.73;;;13.00;99.90;;;;;;7278258;19;20208;-77
2024/01/22 09:28:36;;;;;;;15.83;2.70;;;13.00;99.90;;;;;;7280735;19;20192;-76
2024/01/22 09:31:01;;;;;;;13.47;1.80;;;13.10;99.90;;;;;;7278682;19;20218;-76
2024/01/22 09:33:27;;;;;;;15.60;2.43;;;13.10;99.90;;;;;;7279611;19;20639;-77
2024/01/22 09:35:53;;;;;;;14.00;1.90;;;13.20;99.90;;;;;;7301187;19;20198;-77
2024/01/22 09:38:19;;;;;;;14.17;2.20;;;13.20;99.90;;;;;;7280987;19;20199;-77
2024/01/22 09:40:45;;;;;;;14.73;1.90;;;13.20;99.90;;;;;;7279690;19;20200;-76
2024/01/22 09:43:10;;;;;;;9.33;1.93;;;13.20;99.90;;;;;;7279919;19;20193;-75
2024/01/22 09:45:36;;;;;;;10.97;1.67;;;13.20;99.90;;;;;;7279311;19;21024;-77
2024/01/22 09:48:03;;;;;;;15.23;2.33;;;13.00;99.90;;;;;;7277857;19;20179;-76
2024/01/22 09:50:29;;;;;;;11.87;1.90;;;13.10;99.90;;;;;;7279107;19;20192;-75
2024/01/22 09:53:04;;;;;;;16.93;2.17;;;13.00;99.90;;;;;;7288628;19;20226;-76
2024/01/22 09:55:30;;;;;;;10.23;1.87;;;13.00;99.90;;;;;;7278454;19;20188;-76
2024/01/22 09:57:58;;;;;;;13.67;2.17;;;12.90;99.90;;;;;;7284266;19;20209;-76
2024/01/22 10:00:26;;;;;;;11.57;1.90;;;12.80;99.90;;;;;;7297160;19;20182;-76
2024/01/22 10:02:53;;;;;;;10.97;2.00;;;12.70;99.90;;;;;;7301804;19;20188;-76
2024/01/22 10:05:20;;;;;;;14.90;2.10;;;12.60;99.90;;;;;;7279406;19;20264;-76
2024/01/22 10:07:47;;;;;;;12.67;2.13;;;12.40;99.90;;;;;;7277670;19;20676;-76
2024/01/22 10:10:13;;;;;;;12.13;2.03;;;12.40;99.90;;;;;;7279174;19;20185;-77
2024/01/22 10:13:12;;;;;;;10.53;1.90;;;12.40;99.90;;;;;;7278046;19;20608;-76
2024/01/22 10:15:38;;;;;;;12.00;2.60;;;12.30;99.90;;;;;;7176486;19;2004588;-76
2024/01/22 10:18:15;;;;;;;17.70;2.40;;;12.30;99.90;;;;;;7278013;19;20189;-75
2024/01/22 10:20:43;;;;;;;12.83;2.63;;;12.20;99.90;;;;;;7280084;19;20197;-76
2024/01/22 10:23:10;;;;;;;23.47;2.97;;;12.20;99.90;;;;;;7278202;19;20250;-75
2024/01/22 10:25:36;;;;;;;19.90;3.17;;;12.20;99.90;;;;;;7278641;19;20195;-76
2024/01/22 10:28:16;;;;;;;20.93;2.97;;;12.30;99.90;;;;;;7277029;19;21006;-76
2024/01/22 10:30:44;;;;;;;18.80;2.93;;;12.40;99.90;;;;;;7277702;19;20218;-75
2024/01/22 10:33:12;;;;;;;16.10;3.23;;;12.50;99.90;;;;;;7278621;19;20210;-76
2024/01/22 10:35:38;;;;;;;23.10;3.70;;;12.50;99.90;;;;;;7277928;19;20221;-76
2024/01/22 10:38:06;;;;;;;23.40;3.80;;;12.40;99.90;;;;;;7278440;19;20192;-77
2024/01/22 10:40:32;;;;;;;26.80;3.87;;;12.50;99.90;;;;;;7278410;19;20674;-76
2024/01/22 10:42:58;;;;;;;24.03;3.83;;;12.60;99.90;;;;;;7278046;19;20181;-76
2024/01/22 10:45:29;;;;;;;19.53;3.33;;;12.80;99.90;;;;;;7299046;19;20192;-76
2024/01/22 10:47:55;;;;;;;21.20;3.33;;;12.80;99.90;;;;;;7269879;19;20185;-76
2024/01/22 10:50:22;;;;;;;26.93;4.33;;;12.80;99.90;;;;;;7295764;19;20299;-75
2024/01/22 10:52:49;;;;;;;30.07;4.17;;;12.90;99.90;;;;;;7278816;19;20992;-76
2024/01/22 10:55:15;;;;;;;25.53;4.10;;;13.10;99.90;;;;;;7277331;19;20215;-76
2024/01/22 10:57:43;;;;;;;26.63;3.97;;;13.20;99.90;;;;;;7278169;19;20199;-76
2024/01/22 11:00:14;;;;;;;34.23;4.57;;;13.20;99.90;;;;;;7274461;19;20208;-77
2024/01/22 11:02:46;;;;;;;28.27;4.73;;;13.10;99.90;;;;;;7278488;19;20210;-77
2024/01/22 11:05:14;;;;;;;35.10;5.00;;;13.10;99.90;;;;;;7276922;19;20215;-78
2024/01/22 11:07:40;;;;;;;27.07;4.50;;;13.10;99.90;;;;;;7273586;19;20199;-75
2024/01/22 11:10:10;;;;;;;26.77;4.30;;;13.20;99.90;;;;;;7277576;19;20653;-75
2024/01/22 11:12:46;;;;;;;29.70;4.37;;;13.30;99.90;;;;;;7283429;19;20194;-74
2024/01/22 11:15:12;;;;;;;29.37;4.57;;;13.20;99.90;;;;;;7284864;19;20194;-76
2024/01/22 11:17:38;;;;;;;27.80;4.97;;;13.10;99.90;;;;;;7284622;19;20217;-75
2024/01/22 11:20:20;;;;;;;35.53;4.97;;;13.00;99.90;;;;;;7284274;19;20189;-75
2024/01/22 11:23:09;;;;;;;33.97;4.70;;;13.00;99.90;;;;;;7284280;19;20187;-76
2024/01/22 11:25:35;;;;;;;33.90;5.30;;;13.00;99.90;;;;;;7181248;19;2005106;-76
2024/01/22 11:28:03;;;;;;;32.47;5.60;;;12.80;99.90;;;;;;7284681;19;20233;-76
2024/01/22 11:30:34;;;;;;;34.87;5.43;;;12.60;99.90;;;;;;7286323;19;20680;-75
2024/01/22 11:33:00;;;;;;;34.77;6.00;;;12.50;99.90;;;;;;7287863;19;20186;-75
2024/01/22 11:35:43;;;;;;;32.80;5.10;;;12.30;99.90;;;;;;7296792;19;20678;-75
2024/01/22 11:38:12;;;;;;;36.70;5.73;;;12.10;99.90;;;;;;7284666;19;20738;-75
2024/01/22 11:40:52;;;;;;;32.07;4.87;;;12.00;99.90;;;;;;7285417;19;20227;-75
2024/01/22 11:43:20;;;;;;;40.63;5.60;;;12.00;99.90;;;;;;7283216;19;20188;-76
2024/01/22 11:45:50;;;;;;;32.67;4.90;;;11.80;99.90;;;;;;7283659;19;20182;-75
2024/01/22 11:48:17;;;;;;;34.83;5.73;;;11.70;99.90;;;;;;7283166;19;20628;-75
2024/01/22 11:50:55;;;;;;;34.70;5.60;;;11.60;99.90;;;;;;7283280;19;20199;-75
2024/01/22 11:53:21;;;;;;;38.10;5.47;;;11.70;99.90;;;;;;7284635;19;20275;-76
2024/01/22 11:56:03;;;;;;;29.67;5.27;;;11.90;99.90;;;;;;7283891;19;20290;-75
2024/01/22 11:58:30;;;;;;;38.13;6.50;;;12.20;99.90;;;;;;7261266;19;20192;-76
2024/01/22 12:00:56;;;;;;;30.07;5.00;;;12.20;99.90;;;;;;7290996;19;20217;-75
2024/01/22 12:03:30;;;;;;;37.53;5.40;;;12.10;99.90;;;;;;7305039;19;20196;-76
2024/01/22 12:06:00;;;;;;;36.57;5.87;;;12.10;99.90;;;;;;7274018;19;20196;-76
2024/01/22 12:08:26;;;;;;;39.60;6.40;;;12.10;99.90;;;;;;7296306;19;20193;-75
2024/01/22 12:10:56;;;;;;;35.33;6.17;;;12.10;99.90;;;;;;7303686;19;20649;-76
2024/01/22 12:13:23;;;;;;;44.03;5.87;;;12.50;99.90;;;;;;7282564;19;20185;-75
2024/01/22 12:15:55;;;;;;;35.70;5.27;;;12.60;99.90;;;;;;7282239;19;20225;-75
2024/01/22 12:18:27;;;;;;;31.43;4.73;;;12.90;99.90;;;;;;7284181;19;20185;-75
2024/01/22 12:20:53;;;;;;;32.07;4.93;;;12.90;99.90;;;;;;7283728;19;20200;-77
2024/01/22 12:23:31;;;;;;;27.93;4.97;;;12.90;99.90;;;;;;7281663;19;20189;-75
2024/01/22 12:25:58;;;;;;;33.90;5.33;;;13.10;99.90;;;;;;7257461;19;20704;-74
2024/01/22 12:28:24;;;;;;;34.67;5.40;;;13.40;99.90;;;;;;7302698;19;20298;-75
2024/01/22 12:31:00;;;;;;;30.93;4.93;;;13.80;99.90;;;;;;7280332;19;20305;-75
2024/01/22 12:33:27;;;;;;;26.67;4.53;;;14.20;99.90;;;;;;7263463;19;20191;-75
2024/01/22 12:36:06;;;;;;;28.30;4.97;;;14.20;99.90;;;;;;7303406;19;21022;-75
2024/01/22 12:38:34;;;;;;;30.20;4.53;;;14.20;99.90;;;;;;7178565;19;2004376;-76
2024/01/22 12:41:04;;;;;;;27.73;4.03;;;14.40;99.90;;;;;;7278874;19;20194;-76